Time;durP1;ratioP1;P1;durP2;ratioP2;P2;SDS_P1;SDS_P2;PMS_P1;PMS_P2;Temp;Humidity;BMP_temperature;BMP_pressure;BME280_temperature;BME280_humidity;BME280_pressure;Samples;Min_cycle;Max_cycle;Signal;HPM_P1;HPM_P2
2023/03/10 00:00:50;;;;;;;;;;;;;;;6.22;96.20;94573.31;5037325;28;20396;-73
2023/03/10 00:03:16;;;;;;;;;;;;;;;6.22;96.76;94562.91;5037167;28;19954;-73
2023/03/10 00:05:42;;;;;;;;;;;;;;;6.23;96.84;94567.09;4987290;28;20039;-73
2023/03/10 00:08:08;;;;;;;;;;;;;;;6.23;96.92;94564.47;5037319;28;20410;-73
2023/03/10 00:10:34;;;;;;;;;;;;;;;6.22;96.74;94555.09;5037332;28;19955;-73
2023/03/10 00:12:59;;;;;;;;;;;;;;;6.23;96.77;94554.06;5037047;28;19951;-73
2023/03/10 00:15:25;;;;;;;;;;;;;;;6.23;96.18;94548.84;5037703;28;19967;-74
2023/03/10 00:17:54;;;;;;;;;;;;;;;6.22;95.89;94535.06;5037075;28;19992;-74
2023/03/10 00:20:21;;;;;;;;;;;;;;;6.26;95.19;94527.59;5019674;28;19975;-74
2023/03/10 00:22:47;;;;;;;;;;;;;;;6.28;95.80;94525.53;5037443;28;20295;-73
2023/03/10 00:25:14;;;;;;;;;;;;;;;6.32;95.72;94525.81;5037049;28;19950;-73
2023/03/10 00:27:40;;;;;;;;;;;;;;;6.35;96.51;94540.97;5036888;28;19953;-74
2023/03/10 00:30:06;;;;;;;;;;;;;;;6.37;95.53;94525.91;5036878;28;19944;-74
2023/03/10 00:32:33;;;;;;;;;;;;;;;6.39;95.83;94522.03;5036680;28;20426;-76
2023/03/10 00:34:58;;;;;;;;;;;;;;;6.41;96.65;94524.41;5036632;28;19973;-74
2023/03/10 00:37:24;;;;;;;;;;;;;;;6.42;95.40;94516.34;5019137;28;19947;-73
2023/03/10 00:39:51;;;;;;;;;;;;;;;6.43;95.43;94511.94;5036596;28;19954;-73
2023/03/10 00:42:17;;;;;;;;;;;;;;;6.43;95.43;94509.34;5036735;28;20432;-75
2023/03/10 00:44:43;;;;;;;;;;;;;;;6.44;95.50;94503.09;5036539;28;19971;-74
2023/03/10 00:47:09;;;;;;;;;;;;;;;6.45;95.83;94508.06;5036526;28;19987;-74
2023/03/10 00:49:34;;;;;;;;;;;;;;;6.46;95.71;94511.44;5036452;28;19995;-74
2023/03/10 00:52:00;;;;;;;;;;;;;;;6.46;95.73;94501.03;5018844;28;19946;-74
2023/03/10 00:54:26;;;;;;;;;;;;;;;6.46;95.31;94493.22;5036341;28;20437;-75
2023/03/10 00:56:52;;;;;;;;;;;;;;;6.46;95.57;94491.41;5036323;28;20443;-74
2023/03/10 00:59:18;;;;;;;;;;;;;;;6.47;95.78;94507.84;5036863;28;19965;-74
2023/03/10 01:01:44;;;;;;;;;;;;;;;6.46;95.22;94494.00;5036313;28;19946;-75
2023/03/10 01:04:14;;;;;;;;;;;;;;;6.47;95.80;94489.63;5032978;28;19955;-74
2023/03/10 01:06:41;;;;;;;;;;;;;;;6.47;95.90;94485.19;5015527;28;20377;-74
2023/03/10 01:09:07;;;;;;;;;;;;;;;6.47;96.25;94495.59;5033493;28;19946;-75
2023/03/10 01:11:33;;;;;;;;;;;;;;;6.46;96.44;94482.81;5033349;28;20040;-75
2023/03/10 01:14:01;;;;;;;;;;;;;;;6.45;96.71;94487.25;5033136;28;19950;-74
2023/03/10 01:16:27;;;;;;;;;;;;;;;6.42;97.00;94474.69;5032793;28;19971;-75
2023/03/10 01:18:53;;;;;;;;;;;;;;;6.40;97.66;94484.53;5032168;28;19941;-74
2023/03/10 01:21:30;;;;;;;;;;;;;;;6.38;98.53;94470.97;5015463;28;19948;-75
2023/03/10 01:23:56;;;;;;;;;;;;;;;6.36;97.47;94467.84;5032754;28;19941;-74
2023/03/10 01:26:22;;;;;;;;;;;;;;;6.36;98.68;94474.84;5032735;28;20028;-74
2023/03/10 01:28:48;;;;;;;;;;;;;;;6.34;99.26;94476.91;5032833;28;19998;-74
2023/03/10 01:31:14;;;;;;;;;;;;;;;6.30;98.80;94469.59;5033149;28;20298;-74
2023/03/10 01:33:41;;;;;;;;;;;;;;;6.30;99.59;94469.59;5032559;28;19943;-74
2023/03/10 01:36:08;;;;;;;;;;;;;;;6.28;99.70;94473.47;5032687;28;19960;-74
2023/03/10 01:38:34;;;;;;;;;;;;;;;6.27;99.32;94464.84;5032686;28;19946;-75
2023/03/10 01:41:00;;;;;;;;;;;;;;;6.29;100.00;94475.03;5032792;28;20445;-76
2023/03/10 01:43:34;;;;;;;;;;;;;;;6.29;99.63;94469.81;5032317;28;19952;-75
2023/03/10 01:45:59;;;;;;;;;;;;;;;6.29;99.88;94467.22;5032698;28;20431;-75
2023/03/10 01:48:27;;;;;;;;;;;;;;;6.33;99.69;94465.72;5032680;28;19944;-75
2023/03/10 01:50:54;;;;;;;;;;;;;;;6.37;100.00;94466.03;5032547;28;19955;-75
2023/03/10 01:53:21;;;;;;;;;;;;;;;6.45;100.00;94468.22;5032978;28;20437;-75
2023/03/10 01:55:49;;;;;;;;;;;;;;;6.51;100.00;94459.47;5014826;28;20427;-74
2023/03/10 01:58:17;;;;;;;;;;;;;;;6.59;100.00;94458.25;5032175;28;19951;-74
2023/03/10 02:00:43;;;;;;;;;;;;;;;6.65;100.00;94454.66;5015183;28;20321;-74
2023/03/10 02:03:13;;;;;;;;;;;;;;;6.70;100.00;94447.72;5032787;28;20328;-74
2023/03/10 02:05:44;;;;;;;;;;;;;;;6.73;100.00;94441.22;5032174;28;19948;-76
2023/03/10 02:08:11;;;;;;;;;;;;;;;6.74;100.00;94445.41;5032479;28;19952;-76
2023/03/10 02:10:37;;;;;;;;;;;;;;;6.76;100.00;94439.94;5032336;28;19943;-76
2023/03/10 02:13:04;;;;;;;;;;;;;;;6.77;100.00;94436.31;5032369;28;19944;-78
2023/03/10 02:15:31;;;;;;;;;;;;;;;6.77;100.00;94439.72;5030638;28;20429;-77
2023/03/10 02:17:57;;;;;;;;;;;;;;;6.79;100.00;94429.84;5032303;28;19945;-76
2023/03/10 02:20:26;;;;;;;;;;;;;;;6.82;100.00;94433.78;5031974;28;20306;-76
2023/03/10 02:22:52;;;;;;;;;;;;;;;6.82;100.00;94420.75;5032009;28;19956;-76
2023/03/10 02:25:24;;;;;;;;;;;;;;;6.81;100.00;94427.78;5031819;28;20140;-75
2023/03/10 02:27:50;;;;;;;;;;;;;;;6.78;100.00;94433.47;5031799;28;19953;-75
2023/03/10 02:30:16;;;;;;;;;;;;;;;6.78;100.00;94422.25;5032025;28;19944;-76
2023/03/10 02:32:44;;;;;;;;;;;;;;;6.77;100.00;94420.69;5031803;28;19948;-76
2023/03/10 02:35:10;;;;;;;;;;;;;;;6.77;100.00;94428.50;5031600;28;20414;-76
2023/03/10 02:37:36;;;;;;;;;;;;;;;6.75;100.00;94435.78;5031878;28;19948;-76
2023/03/10 02:40:04;;;;;;;;;;;;;;;6.76;100.00;94429.53;5031613;28;19944;-76
2023/03/10 02:42:32;;;;;;;;;;;;;;;6.74;100.00;94419.38;5032419;28;19944;-75
2023/03/10 02:44:59;;;;;;;;;;;;;;;6.76;100.00;94416.50;5031132;28;19978;-76
2023/03/10 02:47:25;;;;;;;;;;;;;;;6.78;100.00;94417.06;5031607;28;19983;-75
2023/03/10 02:49:51;;;;;;;;;;;;;;;6.79;100.00;94408.22;5031589;28;19996;-75
2023/03/10 02:52:33;;;;;;;;;;;;;;;6.80;100.00;94405.34;5031429;28;19944;-75
2023/03/10 02:54:59;;;;;;;;;;;;;;;6.82;100.00;94410.31;5031657;28;19945;-75
2023/03/10 02:57:25;;;;;;;;;;;;;;;6.82;100.00;94403.28;4997497;28;20340;-76
2023/03/10 02:59:51;;;;;;;;;;;;;;;6.83;100.00;94407.47;5031605;28;19981;-76
2023/03/10 03:02:16;;;;;;;;;;;;;;;6.83;100.00;94404.09;5031464;28;20033;-76
2023/03/10 03:04:42;;;;;;;;;;;;;;;6.85;100.00;94409.84;4997891;28;19999;-77
2023/03/10 03:07:08;;;;;;;;;;;;;;;6.86;100.00;94398.38;5012886;28;19955;-76
2023/03/10 03:09:34;;;;;;;;;;;;;;;6.85;100.00;94404.63;5014057;28;19986;-76
2023/03/10 03:12:00;;;;;;;;;;;;;;;6.85;100.00;94397.59;5031475;28;19946;-77
2023/03/10 03:14:26;;;;;;;;;;;;;;;6.84;100.00;94388.19;5031182;28;19951;-77
2023/03/10 03:16:52;;;;;;;;;;;;;;;6.86;100.00;94390.56;5013504;28;19979;-77
2023/03/10 03:19:18;;;;;;;;;;;;;;;6.85;100.00;94387.19;5031163;28;19940;-77
2023/03/10 03:21:48;;;;;;;;;;;;;;;6.85;100.00;94376.75;5014069;28;19995;-75
2023/03/10 03:24:17;;;;;;;;;;;;;;;6.86;100.00;94372.34;5031020;28;19954;-76
2023/03/10 03:26:43;;;;;;;;;;;;;;;6.86;100.00;94374.94;5030615;28;19953;-76
2023/03/10 03:29:10;;;;;;;;;;;;;;;6.87;100.00;94381.75;5030879;28;20363;-76
2023/03/10 03:31:37;;;;;;;;;;;;;;;6.87;100.00;94366.88;5031109;28;19948;-75
2023/03/10 03:34:04;;;;;;;;;;;;;;;6.86;100.00;94362.69;5046067;28;20318;-75
2023/03/10 03:36:29;;;;;;;;;;;;;;;6.86;100.00;94357.47;5029889;28;20519;-75
2023/03/10 03:38:55;;;;;;;;;;;;;;;6.85;100.00;94348.09;5031326;28;19952;-76
2023/03/10 03:41:21;;;;;;;;;;;;;;;6.84;100.00;94349.13;5030806;28;19994;-76
2023/03/10 03:43:47;;;;;;;;;;;;;;;6.83;100.00;94355.38;5031008;28;19971;-76
2023/03/10 03:46:13;;;;;;;;;;;;;;;6.82;100.00;94356.41;5030882;28;19997;-76
2023/03/10 03:48:39;;;;;;;;;;;;;;;6.80;100.00;94339.44;5030863;28;19957;-76
2023/03/10 03:51:05;;;;;;;;;;;;;;;6.77;100.00;94350.38;5030619;28;20408;-76
2023/03/10 03:53:31;;;;;;;;;;;;;;;6.76;100.00;94348.78;5013416;28;19982;-75
2023/03/10 03:55:57;;;;;;;;;;;;;;;6.75;100.00;94336.81;5030621;28;19963;-76
2023/03/10 03:58:24;;;;;;;;;;;;;;;6.74;100.00;94333.41;5031013;28;19945;-76
2023/03/10 04:00:49;;;;;;;;;;;;;;;6.74;100.00;94320.41;5012964;28;19951;-78
2023/03/10 04:03:15;;;;;;;;;;;;;;;6.73;100.00;94323.25;5030466;28;20062;-77
2023/03/10 04:05:42;;;;;;;;;;;;;;;6.71;100.00;94326.88;5031188;28;20356;-77
2023/03/10 04:08:09;;;;;;;;;;;;;;;6.67;100.00;94328.38;5030699;28;19947;-78
2023/03/10 04:10:35;;;;;;;;;;;;;;;6.65;100.00;94327.84;5030508;28;20391;-76
2023/03/10 04:13:01;;;;;;;;;;;;;;;6.64;100.00;94322.91;5030452;28;19958;-76
2023/03/10 04:15:26;;;;;;;;;;;;;;;6.63;100.00;94319.47;5013112;28;19998;-77
2023/03/10 04:17:52;;;;;;;;;;;;;;;6.63;100.00;94314.28;5030472;28;20045;-77
2023/03/10 04:20:18;;;;;;;;;;;;;;;6.63;100.00;94314.28;5013332;28;19963;-77
2023/03/10 04:22:44;;;;;;;;;;;;;;;6.62;100.00;94317.94;5030447;28;19951;-77
2023/03/10 04:25:10;;;;;;;;;;;;;;;6.58;100.00;94311.63;5012714;28;19955;-76
2023/03/10 04:27:36;;;;;;;;;;;;;;;6.57;100.00;94314.47;5012559;28;20317;-77
2023/03/10 04:30:03;;;;;;;;;;;;;;;6.55;100.00;94313.94;5030312;28;19956;-77
2023/03/10 04:32:29;;;;;;;;;;;;;;;6.55;100.00;94306.94;5030397;28;20317;-76
2023/03/10 04:34:54;;;;;;;;;;;;;;;6.57;100.00;94311.88;5030022;28;20028;-76
2023/03/10 04:37:20;;;;;;;;;;;;;;;6.61;100.00;94321.53;5030124;28;19987;-77
2023/03/10 04:39:46;;;;;;;;;;;;;;;6.63;100.00;94311.66;5033535;28;19944;-77
2023/03/10 04:42:12;;;;;;;;;;;;;;;6.66;100.00;94318.22;5033731;28;20057;-77
2023/03/10 04:44:38;;;;;;;;;;;;;;;6.70;100.00;94306.28;5033347;28;19972;-77
2023/03/10 04:47:04;;;;;;;;;;;;;;;6.73;100.00;94292.00;5015900;28;19957;-77
2023/03/10 04:49:30;;;;;;;;;;;;;;;6.75;100.00;94295.13;5033325;28;19955;-77
2023/03/10 04:51:56;;;;;;;;;;;;;;;6.77;100.00;94301.66;5033390;28;20377;-76
2023/03/10 04:54:22;;;;;;;;;;;;;;;6.77;100.00;94303.50;5033255;28;19946;-76
2023/03/10 04:56:48;;;;;;;;;;;;;;;6.77;100.00;94295.66;5033295;28;20012;-77
2023/03/10 04:59:14;;;;;;;;;;;;;;;6.76;100.00;94291.47;5033188;28;19978;-78
2023/03/10 05:01:40;;;;;;;;;;;;;;;6.72;100.00;94296.41;5033563;28;20038;-76
2023/03/10 05:04:05;;;;;;;;;;;;;;;6.71;100.00;94284.41;5033466;28;20347;-76
2023/03/10 05:06:31;;;;;;;;;;;;;;;6.71;100.00;94281.81;5033268;28;20000;-76
2023/03/10 05:08:59;;;;;;;;;;;;;;;6.69;100.00;94273.44;5033288;28;20381;-76
2023/03/10 05:11:25;;;;;;;;;;;;;;;6.68;100.00;94271.91;5033197;28;19963;-76
2023/03/10 05:13:51;;;;;;;;;;;;;;;6.65;100.00;94267.94;5033331;28;19944;-76
2023/03/10 05:16:18;;;;;;;;;;;;;;;6.63;100.00;94261.41;5032952;28;20022;-76
2023/03/10 05:18:44;;;;;;;;;;;;;;;6.62;100.00;94265.84;5032978;28;19946;-76
2023/03/10 05:21:10;;;;;;;;;;;;;;;6.63;100.00;94269.22;5033533;28;19958;-76
2023/03/10 05:23:36;;;;;;;;;;;;;;;6.63;100.00;94262.19;5032921;28;19950;-76
2023/03/10 05:26:03;;;;;;;;;;;;;;;6.65;100.00;94264.56;5033095;28;20317;-76
2023/03/10 05:28:29;;;;;;;;;;;;;;;6.65;100.00;94262.72;5032781;28;19947;-76
2023/03/10 05:30:55;;;;;;;;;;;;;;;6.68;100.00;94264.88;5032965;28;20319;-77
2023/03/10 05:33:21;;;;;;;;;;;;;;;6.68;100.00;94264.09;5033148;28;19957;-76
2023/03/10 05:35:47;;;;;;;;;;;;;;;6.67;100.00;94271.09;5032711;28;19965;-77
2023/03/10 05:38:13;;;;;;;;;;;;;;;6.69;100.00;94265.63;5032842;28;20027;-77
2023/03/10 05:40:40;;;;;;;;;;;;;;;6.69;100.00;94273.44;5032624;28;19948;-77
2023/03/10 05:43:06;;;;;;;;;;;;;;;6.73;100.00;94273.75;5032727;28;19968;-77
2023/03/10 05:45:32;;;;;;;;;;;;;;;6.76;100.00;94276.66;5032748;28;19997;-78
2023/03/10 05:47:57;;;;;;;;;;;;;;;6.82;100.00;94273.03;5032760;28;19955;-77
2023/03/10 05:50:23;;;;;;;;;;;;;;;6.87;100.00;94270.50;5032842;28;20365;-77
2023/03/10 05:52:49;;;;;;;;;;;;;;;6.91;100.00;94261.16;5032617;28;19946;-76
2023/03/10 05:55:16;;;;;;;;;;;;;;;6.93;100.00;94260.91;4998681;28;19950;-78
2023/03/10 05:57:42;;;;;;;;;;;;;;;6.91;100.00;94261.16;5032135;28;19963;-77
2023/03/10 06:00:09;;;;;;;;;;;;;;;6.91;100.00;94270.78;5032432;28;19945;-77
2023/03/10 06:02:36;;;;;;;;;;;;;;;6.90;100.00;94275.19;5032224;28;19943;-77
2023/03/10 06:05:02;;;;;;;;;;;;;;;6.88;100.00;94264.25;5032302;28;19961;-77
2023/03/10 06:07:28;;;;;;;;;;;;;;;6.87;100.00;94251.47;5032540;28;20408;-77
2023/03/10 06:09:54;;;;;;;;;;;;;;;6.87;100.00;94275.72;5032177;28;19996;-76
2023/03/10 06:12:20;;;;;;;;;;;;;;;6.85;100.00;94251.72;5032269;28;20049;-77
2023/03/10 06:14:46;;;;;;;;;;;;;;;6.86;100.00;94244.69;5032474;28;20016;-77
2023/03/10 06:17:12;;;;;;;;;;;;;;;6.86;100.00;94242.84;5014428;28;20008;-77
2023/03/10 06:19:38;;;;;;;;;;;;;;;6.86;100.00;94237.66;5031928;28;19952;-77
2023/03/10 06:22:03;;;;;;;;;;;;;;;6.87;100.00;94241.06;5032020;28;19999;-77
2023/03/10 06:24:29;;;;;;;;;;;;;;;6.88;100.00;94235.59;5032012;28;19949;-77
2023/03/10 06:26:55;;;;;;;;;;;;;;;6.87;100.00;94226.22;5032337;28;19952;-77
2023/03/10 06:29:21;;;;;;;;;;;;;;;6.88;100.00;94214.75;5014648;28;20391;-76
2023/03/10 06:31:47;;;;;;;;;;;;;;;6.85;100.00;94210.03;5014483;28;19947;-76
2023/03/10 06:34:13;;;;;;;;;;;;;;;6.84;100.00;94210.28;5032562;28;20001;-77
2023/03/10 06:36:39;;;;;;;;;;;;;;;6.83;100.00;94206.13;5031875;28;19967;-76
2023/03/10 06:39:05;;;;;;;;;;;;;;;6.82;100.00;94192.28;5031216;28;19961;-76
2023/03/10 06:41:31;;;;;;;;;;;;;;;6.83;100.00;94190.50;5031820;28;19958;-76
2023/03/10 06:43:57;;;;;;;;;;;;;;;6.86;100.00;94203.78;5031614;28;19975;-76
2023/03/10 06:46:24;;;;;;;;;;;;;;;6.90;100.00;94191.06;5031806;28;19952;-76
2023/03/10 06:48:50;;;;;;;;;;;;;;;6.93;100.00;94189.75;5031633;28;19956;-76
2023/03/10 06:51:17;;;;;;;;;;;;;;;6.99;100.00;94189.56;5031722;28;19951;-76
2023/03/10 06:53:43;;;;;;;;;;;;;;;7.07;100.00;94186.47;5031748;28;20420;-76
2023/03/10 06:56:14;;;;;;;;;;;;;;;7.17;100.00;94192.78;5031562;28;19972;-76
2023/03/10 06:58:40;;;;;;;;;;;;;;;7.34;100.00;94192.63;5031661;28;19947;-76
2023/03/10 07:01:07;;;;;;;;;;;;;;;7.31;100.00;94176.47;5030916;28;19959;-77
2023/03/10 07:03:34;;;;;;;;;;;;;;;7.27;100.00;94180.59;5031377;28;19952;-77
2023/03/10 07:06:00;;;;;;;;;;;;;;;7.23;100.00;94181.38;5031421;28;19948;-78
2023/03/10 07:08:26;;;;;;;;;;;;;;;7.20;100.00;94177.44;5031207;28;19950;-80
2023/03/10 07:10:52;;;;;;;;;;;;;;;7.18;100.00;94176.91;5013510;28;19952;-78
2023/03/10 07:13:18;;;;;;;;;;;;;;;7.17;100.00;94177.94;5031369;28;20397;-78
2023/03/10 07:15:44;;;;;;;;;;;;;;;7.20;100.00;94179.25;5031921;28;19957;-78
2023/03/10 07:18:11;;;;;;;;;;;;;;;7.23;100.00;94184.75;5031274;28;20560;-78
2023/03/10 07:20:42;;;;;;;;;;;;;;;7.22;100.00;94174.56;5031281;28;19948;-78
2023/03/10 07:23:08;;;;;;;;;;;;;;;7.22;100.00;94182.38;5013676;28;19942;-77
2023/03/10 07:25:34;;;;;;;;;;;;;;;7.26;100.00;94188.66;5031358;28;19964;-76
2023/03/10 07:28:01;;;;;;;;;;;;;;;7.28;100.00;94184.00;5031183;28;19964;-77
2023/03/10 07:30:26;;;;;;;;;;;;;;;7.29;100.00;94186.34;5014191;28;19962;-76
2023/03/10 07:32:52;;;;;;;;;;;;;;;7.32;100.00;94198.09;5031406;28;19948;-76
2023/03/10 07:35:18;;;;;;;;;;;;;;;7.35;100.00;94191.56;5030926;28;19949;-77
2023/03/10 07:37:44;;;;;;;;;;;;;;;7.35;100.00;94186.38;5030726;28;19958;-75
2023/03/10 07:40:10;;;;;;;;;;;;;;;7.36;100.00;94193.16;5031109;28;19949;-77
2023/03/10 07:42:36;;;;;;;;;;;;;;;7.38;100.00;94198.91;5031488;28;19966;-77
2023/03/10 07:45:02;;;;;;;;;;;;;;;7.38;100.00;94191.09;5016865;28;19975;-77
2023/03/10 07:47:28;;;;;;;;;;;;;;;7.37;100.00;94218.19;5031611;28;19954;-77
2023/03/10 07:49:54;;;;;;;;;;;;;;;7.37;100.00;94231.22;5031161;28;20048;-77
2023/03/10 07:52:20;;;;;;;;;;;;;;;7.35;100.00;94252.34;5013107;28;19955;-77
2023/03/10 07:54:46;;;;;;;;;;;;;;;7.31;100.00;94253.88;5031157;28;20028;-77
2023/03/10 07:57:12;;;;;;;;;;;;;;;7.19;100.00;94256.66;5030964;28;19972;-77
2023/03/10 07:59:38;;;;;;;;;;;;;;;7.07;100.00;94256.81;5030709;28;19959;-77
2023/03/10 08:02:05;;;;;;;;;;;;;;;6.95;100.00;94252.81;5013324;28;20318;-76
2023/03/10 08:04:30;;;;;;;;;;;;;;;6.83;100.00;94237.38;5030584;28;20329;-75
2023/03/10 08:06:58;;;;;;;;;;;;;;;6.74;100.00;94250.06;5030478;28;19985;-75
2023/03/10 08:09:24;;;;;;;;;;;;;;;6.67;100.00;94252.06;5030685;28;20311;-76
2023/03/10 08:11:49;;;;;;;;;;;;;;;6.63;100.00;94251.00;5031140;28;19984;-75
2023/03/10 08:14:18;;;;;;;;;;;;;;;6.63;100.00;94256.22;5016974;28;20326;-75
2023/03/10 08:16:43;;;;;;;;;;;;;;;6.63;100.00;94258.81;5034353;28;19971;-75
2023/03/10 08:19:09;;;;;;;;;;;;;;;6.63;100.00;94249.16;5033830;28;20004;-76
2023/03/10 08:21:35;;;;;;;;;;;;;;;6.67;100.00;94262.50;5034134;28;19962;-75
2023/03/10 08:24:01;;;;;;;;;;;;;;;6.68;100.00;94251.84;5034346;28;20012;-75
2023/03/10 08:26:27;;;;;;;;;;;;;;;6.67;100.00;94242.44;5033327;28;19956;-75
2023/03/10 08:28:53;;;;;;;;;;;;;;;6.67;100.00;94239.84;5033841;28;19996;-75
2023/03/10 08:31:19;;;;;;;;;;;;;;;6.95;100.00;94229.38;5033666;28;19954;-75
2023/03/10 08:33:46;;;;;;;;;;;;;;;7.69;100.00;94234.53;5033967;28;19956;-77
2023/03/10 08:36:13;;;;;;;;;;;;;;;8.45;100.00;94235.09;5033465;28;19955;-76
2023/03/10 08:38:40;;;;;;;;;;;;;;;9.03;100.00;94234.84;5034189;28;19947;-76
2023/03/10 08:41:10;;;;;;;;;;;;;;;9.47;100.00;94235.09;5033826;28;20425;-76
2023/03/10 08:43:36;;;;;;;;;;;;;;;9.92;100.00;94230.75;5033383;28;20634;-77
2023/03/10 08:46:01;;;;;;;;;;;;;;;10.15;100.00;94226.72;5033523;28;19953;-76
2023/03/10 08:48:27;;;;;;;;;;;;;;;10.33;100.00;94227.97;5033641;28;19962;-77
2023/03/10 08:50:53;;;;;;;;;;;;;;;10.21;100.00;94230.09;5033304;28;19947;-77
2023/03/10 08:53:19;;;;;;;;;;;;;;;10.12;99.88;94231.72;5033490;28;19945;-77
2023/03/10 08:55:45;;;;;;;;;;;;;;;10.21;97.53;94214.41;5033284;28;20322;-77
2023/03/10 08:58:11;;;;;;;;;;;;;;;10.39;98.48;94230.56;5033208;28;20035;-76
2023/03/10 09:00:37;;;;;;;;;;;;;;;10.27;97.45;94236.88;5033477;28;19953;-77
2023/03/10 09:03:02;;;;;;;;;;;;;;;10.19;100.00;94255.78;5033595;28;20017;-77
2023/03/10 09:05:28;;;;;;;;;;;;;;;10.09;99.06;94258.44;5033243;28;20046;-77
2023/03/10 09:07:54;;;;;;;;;;;;;;;9.90;100.00;94271.34;5033374;28;20473;-77
2023/03/10 09:10:20;;;;;;;;;;;;;;;9.67;100.00;94267.47;5033187;28;19962;-78
2023/03/10 09:12:46;;;;;;;;;;;;;;;9.45;95.96;94259.91;5033086;28;20380;-77
2023/03/10 09:15:12;;;;;;;;;;;;;;;9.27;100.00;94280.34;5033290;28;19955;-77
2023/03/10 09:17:38;;;;;;;;;;;;;;;9.17;100.00;94284.78;5015328;28;19969;-77
2023/03/10 09:20:05;;;;;;;;;;;;;;;9.10;100.00;94272.75;5033614;28;19951;-77
2023/03/10 09:22:31;;;;;;;;;;;;;;;9.10;100.00;94288.44;5033026;28;19954;-74
2023/03/10 09:24:57;;;;;;;;;;;;;;;9.07;100.00;94277.72;5032222;28;19947;-74
2023/03/10 09:27:23;;;;;;;;;;;;;;;8.99;100.00;94273.00;5033639;28;19944;-73
2023/03/10 09:29:49;;;;;;;;;;;;;;;8.90;99.63;94267.53;5033067;28;20443;-74
2023/03/10 09:32:14;;;;;;;;;;;;;;;8.81;100.00;94277.72;5034104;28;20372;-74
2023/03/10 09:34:40;;;;;;;;;;;;;;;8.77;100.00;94297.56;5015044;28;20047;-74
2023/03/10 09:37:06;;;;;;;;;;;;;;;8.73;100.00;94288.66;5033407;28;19979;-73
2023/03/10 09:39:32;;;;;;;;;;;;;;;8.69;100.00;94292.84;5032702;28;19954;-73
2023/03/10 09:42:01;;;;;;;;;;;;;;;8.60;100.00;94302.25;5032984;28;20398;-73
2023/03/10 09:44:37;;;;;;;;;;;;;;;8.50;100.00;94295.97;5032860;28;19973;-73
2023/03/10 09:47:18;;;;;;;;;;;;;;;8.44;100.00;94294.38;5032510;28;19950;-73
2023/03/10 09:50:03;;;;;;;;;;;;;;;8.42;100.00;94296.47;5032980;28;19942;-73
2023/03/10 09:52:47;;;;;;;;;;;;;;;8.52;100.00;94293.06;5032627;28;20320;-73
2023/03/10 09:55:13;;;;;;;;;;;;;;;8.73;100.00;94286.88;5032586;28;19945;-74
2023/03/10 09:57:39;;;;;;;;;;;;;;;8.80;100.00;94281.38;5032423;28;19963;-74
2023/03/10 10:00:10;;;;;;;;;;;;;;;8.82;100.00;94278.47;5032523;28;19992;-74
2023/03/10 10:02:40;;;;;;;;;;;;;;;8.84;100.00;94287.66;5015154;28;20307;-73
2023/03/10 10:05:12;;;;;;;;;;;;;;;9.03;100.00;94280.09;5032585;28;19954;-74
2023/03/10 10:07:42;;;;;;;;;;;;;;;9.05;100.00;94285.84;5032398;28;19951;-74
2023/03/10 10:10:17;;;;;;;;;;;;;;;9.02;100.00;94273.28;5032531;28;20010;-75
2023/03/10 10:12:44;;;;;;;;;;;;;;;9.01;100.00;94274.34;5032839;28;19950;-75
2023/03/10 10:15:18;;;;;;;;;;;;;;;8.97;100.00;94269.91;5032170;28;19952;-75
2023/03/10 10:17:52;;;;;;;;;;;;;;;8.90;100.00;94267.53;5032339;28;19976;-75
2023/03/10 10:20:20;;;;;;;;;;;;;;;8.84;100.00;94276.41;5032045;28;19957;-76
2023/03/10 10:22:46;;;;;;;;;;;;;;;8.80;100.00;94275.34;5032201;28;19950;-75
2023/03/10 10:25:23;;;;;;;;;;;;;;;8.73;100.00;94273.81;5032261;28;20289;-75
2023/03/10 10:27:53;;;;;;;;;;;;;;;8.74;100.00;94274.56;5032325;28;19945;-75
2023/03/10 10:30:26;;;;;;;;;;;;;;;8.80;100.00;94280.56;5032344;28;19950;-75
2023/03/10 10:32:56;;;;;;;;;;;;;;;8.91;100.00;94285.56;5031416;28;19951;-75
2023/03/10 10:35:23;;;;;;;;;;;;;;;9.03;100.00;94281.91;5031151;28;19962;-75
2023/03/10 10:37:57;;;;;;;;;;;;;;;9.06;100.00;94274.31;5019033;28;20332;-75
2023/03/10 10:40:24;;;;;;;;;;;;;;;9.05;100.00;94280.63;5014628;28;19951;-75
2023/03/10 10:42:52;;;;;;;;;;;;;;;9.08;100.00;94287.16;5031647;28;20387;-75
2023/03/10 10:45:28;;;;;;;;;;;;;;;9.07;98.35;94275.09;5032066;28;20299;-75
2023/03/10 10:47:55;;;;;;;;;;;;;;;9.05;99.04;94282.44;5031698;28;19950;-75
2023/03/10 10:50:21;;;;;;;;;;;;;;;9.06;98.58;94284.00;5031663;28;19950;-75
2023/03/10 10:52:50;;;;;;;;;;;;;;;8.98;97.57;94280.06;5031843;28;19939;-74
2023/03/10 10:55:34;;;;;;;;;;;;;;;8.98;98.79;94285.31;5031442;28;19962;-74
2023/03/10 10:58:01;;;;;;;;;;;;;;;9.06;99.91;94304.94;5031706;28;19959;-74
2023/03/10 11:00:32;;;;;;;;;;;;;;;9.09;99.09;94292.13;5031663;28;19945;-74
2023/03/10 11:02:58;;;;;;;;;;;;;;;9.11;98.14;94290.03;5031560;28;19953;-74
2023/03/10 11:05:30;;;;;;;;;;;;;;;9.14;100.00;94305.19;5031391;28;20314;-74
2023/03/10 11:08:14;;;;;;;;;;;;;;;9.16;100.00;94302.31;5031361;28;19946;-75
2023/03/10 11:10:41;;;;;;;;;;;;;;;9.06;99.71;94312.75;5031327;28;20384;-74
2023/03/10 11:13:10;;;;;;;;;;;;;;;9.03;100.00;94308.84;5031302;28;19954;-74
2023/03/10 11:15:42;;;;;;;;;;;;;;;9.05;100.00;94311.19;5031466;28;19951;-74
2023/03/10 11:18:24;;;;;;;;;;;;;;;9.11;100.00;94326.63;5031268;28;19968;-74
2023/03/10 11:20:53;;;;;;;;;;;;;;;9.13;100.00;94303.63;5031136;28;19949;-74
2023/03/10 11:23:48;;;;;;;;;;;;;;;9.17;100.00;94321.41;5031426;28;19954;-75
2023/03/10 11:26:30;;;;;;;;;;;;;;;9.23;100.00;94320.34;5013879;28;19959;-74
2023/03/10 11:29:00;;;;;;;;;;;;;;;9.26;100.00;94332.91;5013449;28;19951;-74
2023/03/10 11:31:26;;;;;;;;;;;;;;;9.20;100.00;94315.63;5031325;28;20425;-74
2023/03/10 11:34:10;;;;;;;;;;;;;;;9.11;100.00;94325.81;5030882;28;19940;-75
2023/03/10 11:36:42;;;;;;;;;;;;;;;9.03;100.00;94321.91;5030770;28;19941;-75
2023/03/10 11:39:17;;;;;;;;;;;;;;;9.02;100.00;94330.78;5015853;28;19954;-74
2023/03/10 11:41:46;;;;;;;;;;;;;;;8.99;100.00;94328.72;5013126;28;19939;-75
2023/03/10 11:44:12;;;;;;;;;;;;;;;8.97;100.00;94341.25;5030642;28;19982;-74
2023/03/10 11:46:43;;;;;;;;;;;;;;;9.00;100.00;94335.50;5030583;28;19975;-75
2023/03/10 11:49:10;;;;;;;;;;;;;;;9.01;100.00;94338.88;5031050;28;19943;-75
2023/03/10 11:51:44;;;;;;;;;;;;;;;8.94;100.00;94339.94;5030839;28;20303;-74
2023/03/10 11:54:10;;;;;;;;;;;;;;;8.97;100.00;94338.63;5031205;28;19946;-74
2023/03/10 11:56:36;;;;;;;;;;;;;;;9.05;100.00;94337.31;5030675;28;20386;-74
2023/03/10 11:59:08;;;;;;;;;;;;;;;9.16;100.00;94341.53;5030617;28;19968;-74
2023/03/10 12:01:41;;;;;;;;;;;;;;;9.12;99.38;94317.72;5031381;28;20312;-75
2023/03/10 12:04:11;;;;;;;;;;;;;;;8.99;98.36;94307.81;5030966;28;19962;-75
2023/03/10 12:06:41;;;;;;;;;;;;;;;8.90;100.00;94335.47;5014245;28;19975;-75
2023/03/10 12:09:14;;;;;;;;;;;;;;;8.84;100.00;94323.44;5032018;28;19945;-74
2023/03/10 12:11:40;;;;;;;;;;;;;;;8.85;100.00;94325.81;5031146;28;19953;-74
2023/03/10 12:14:11;;;;;;;;;;;;;;;8.86;100.00;94327.38;5030583;28;20040;-74
2023/03/10 12:16:38;;;;;;;;;;;;;;;8.85;100.00;94323.19;5030720;28;19953;-74
2023/03/10 12:19:05;;;;;;;;;;;;;;;8.82;100.00;94317.69;5030167;28;20034;-74
2023/03/10 12:21:30;;;;;;;;;;;;;;;8.81;100.00;94323.97;5030551;28;19962;-75
2023/03/10 12:24:00;;;;;;;;;;;;;;;8.83;100.00;94327.13;5030791;28;20374;-74
2023/03/10 12:26:39;;;;;;;;;;;;;;;8.78;99.83;94306.19;5030329;28;20315;-75
2023/03/10 12:29:28;;;;;;;;;;;;;;;8.78;99.65;94311.41;5030205;28;19960;-74
2023/03/10 12:31:54;;;;;;;;;;;;;;;8.75;100.00;94328.38;5032536;28;19953;-75
2023/03/10 12:34:21;;;;;;;;;;;;;;;8.71;100.00;94329.94;5030156;28;19950;-75
2023/03/10 12:36:51;;;;;;;;;;;;;;;8.67;100.00;94334.94;5030346;28;19946;-75
2023/03/10 12:39:22;;;;;;;;;;;;;;;8.63;100.00;94349.53;5030280;28;19957;-74
2023/03/10 12:41:50;;;;;;;;;;;;;;;8.65;100.00;94344.84;5012625;28;19949;-76
2023/03/10 12:44:35;;;;;;;;;;;;;;;8.76;100.00;94353.50;4998903;28;19978;-75
2023/03/10 12:47:07;;;;;;;;;;;;;;;8.74;100.00;94351.13;5030041;28;20405;-74
2023/03/10 12:49:42;;;;;;;;;;;;;;;8.65;100.00;94357.91;5029997;28;19945;-74